0LL2 weather

Murk's Strip
St. Augustine, Illinois, United States

Public forecast

Using degrees Fahrenheit for public forecast. Weather courtesy of forecast.io.

METAR (pilot weather report)

Closest report is Galesburg Municipal Airport, 12.2 nm (22.5 km) N. Retrieved 2019/06/17 11:35 UTC (0 seconds ago):

KGBG 171135Z AUTO 05009KT 5SM BR OVC007 16/15 A2998 RMK AO2 T01610150

TAF (pilot weather forecast)

Closest forecast is General Wayne A. Downing Peoria International Airport, 31.6 nm (58.5 km) E. Retrieved 2019/06/17 06:24 UTC (5 hours ago):

TAF KPIA 170523Z 1706/1806 05005KT 6SM BR SCT008 BKN012 TEMPO 1708/1711 SCT012 BKN250 FM171600 03005KT P6SM BKN021 FM171800 03005KT P6SM BKN050